createdAt,value
2022-11-13T00:01:19.207Z,5.90
2022-11-13T00:04:06.201Z,5.90
2022-11-13T00:06:58.937Z,5.90
2022-11-13T00:09:45.946Z,5.80
2022-11-13T00:12:32.390Z,5.80
2022-11-13T00:15:19.043Z,5.80
2022-11-13T00:18:06.058Z,5.70
2022-11-13T00:20:52.644Z,5.80
2022-11-13T00:23:40.703Z,5.80
2022-11-13T00:26:28.842Z,5.70
2022-11-13T00:29:15.630Z,5.80
2022-11-13T00:32:01.899Z,5.80
2022-11-13T00:34:48.730Z,5.70
2022-11-13T00:37:35.536Z,5.70
2022-11-13T00:40:23.471Z,5.70
2022-11-13T00:43:10.171Z,5.60
2022-11-13T00:45:56.753Z,5.60
2022-11-13T00:48:43.182Z,5.60
2022-11-13T00:51:29.694Z,5.60
2022-11-13T00:54:16.371Z,5.60
2022-11-13T00:57:04.223Z,5.60
2022-11-13T00:59:50.937Z,5.60
2022-11-13T01:02:37.653Z,5.50
2022-11-13T01:05:24.388Z,5.60
2022-11-13T01:08:12.563Z,5.50
2022-11-13T01:10:59.315Z,5.50
2022-11-13T01:13:48.893Z,5.50
2022-11-13T01:16:35.417Z,5.50
2022-11-13T01:19:22.112Z,5.50
2022-11-13T01:22:08.674Z,5.50
2022-11-13T01:24:55.134Z,5.50
2022-11-13T01:27:41.618Z,5.40
2022-11-13T01:30:29.607Z,5.40
2022-11-13T01:33:16.377Z,5.40
2022-11-13T01:36:03.925Z,5.40
2022-11-13T01:38:52.542Z,5.40
2022-11-13T01:41:39.790Z,5.40
2022-11-13T01:44:26.125Z,5.40
2022-11-13T01:47:13.993Z,5.30
2022-11-13T01:50:02.989Z,5.40
2022-11-13T01:52:49.558Z,5.30
2022-11-13T01:55:36.002Z,5.30
2022-11-13T01:58:22.586Z,5.30
2022-11-13T02:01:09.491Z,5.30
2022-11-13T02:03:57.234Z,5.30
2022-11-13T02:06:46.992Z,5.20
2022-11-13T02:09:36.813Z,5.20
2022-11-13T02:12:29.504Z,5.20
2022-11-13T02:15:16.504Z,5.10
2022-11-13T02:18:04.971Z,5.10
2022-11-13T02:21:00.059Z,5.00
2022-11-13T02:23:51.935Z,5.00
2022-11-13T02:26:40.709Z,5.00
2022-11-13T02:29:27.125Z,5.00
2022-11-13T02:32:13.735Z,5.00
2022-11-13T02:35:00.367Z,5.00
2022-11-13T02:37:47.119Z,4.90
2022-11-13T02:40:35.475Z,5.00
2022-11-13T02:43:23.418Z,4.90
2022-11-13T02:46:10.274Z,5.00
2022-11-13T02:48:56.919Z,4.90
2022-11-13T02:51:43.609Z,4.90
2022-11-13T02:54:30.003Z,4.80
2022-11-13T02:57:16.471Z,4.80
2022-11-13T03:00:07.947Z,4.80
2022-11-13T03:02:58.871Z,4.80
2022-11-13T03:05:50.018Z,4.80
2022-11-13T03:08:37.392Z,4.80
2022-11-13T03:11:24.423Z,4.80
2022-11-13T03:14:11.159Z,4.80
2022-11-13T03:16:59.401Z,4.80
2022-11-13T03:19:45.846Z,4.10
2022-11-13T03:22:32.413Z,4.70
2022-11-13T03:25:19.242Z,4.70
2022-11-13T03:28:06.359Z,4.70
2022-11-13T03:30:52.655Z,4.70
2022-11-13T03:33:40.447Z,4.70
2022-11-13T03:36:27.720Z,4.70
2022-11-13T03:39:14.240Z,4.60
2022-11-13T03:42:00.993Z,4.70
2022-11-13T03:44:47.402Z,4.60
2022-11-13T03:47:33.813Z,4.70
2022-11-13T03:50:21.733Z,4.70
2022-11-13T03:53:08.260Z,4.70
2022-11-13T03:55:54.904Z,4.70
2022-11-13T03:58:43.712Z,4.60
2022-11-13T04:01:34.088Z,4.60
2022-11-13T04:04:21.150Z,4.60
2022-11-13T04:07:09.208Z,4.60
2022-11-13T04:09:55.847Z,4.60
2022-11-13T04:12:42.581Z,4.50
2022-11-13T04:15:29.346Z,4.50
2022-11-13T04:18:15.717Z,4.50
2022-11-13T04:21:03.292Z,4.50
2022-11-13T04:23:51.418Z,4.40
2022-11-13T04:26:38.125Z,4.50
2022-11-13T04:29:24.711Z,4.40
2022-11-13T04:32:11.336Z,4.50
2022-11-13T04:34:57.894Z,4.50
2022-11-13T04:37:44.486Z,4.40
2022-11-13T04:40:32.309Z,4.40
2022-11-13T04:43:18.082Z,4.50
2022-11-13T04:46:04.535Z,4.50
2022-11-13T04:48:51.120Z,4.50
2022-11-13T04:51:37.491Z,4.50
2022-11-13T04:54:28.533Z,4.40
2022-11-13T04:57:17.100Z,4.40
2022-11-13T05:00:06.223Z,4.20
2022-11-13T05:02:52.855Z,4.30
2022-11-13T05:05:39.323Z,4.40
2022-11-13T05:08:26.094Z,4.40
2022-11-13T05:11:12.816Z,4.40
2022-11-13T05:14:03.398Z,4.30
2022-11-13T05:16:51.703Z,4.30
2022-11-13T05:19:39.074Z,4.30
2022-11-13T05:22:25.627Z,4.20
2022-11-13T05:25:12.074Z,4.20
2022-11-13T05:27:59.211Z,4.20
2022-11-13T05:30:47.217Z,4.20
2022-11-13T05:33:34.122Z,4.20
2022-11-13T05:36:21.677Z,4.20
2022-11-13T05:39:08.685Z,4.10
2022-11-13T05:41:55.294Z,4.20
2022-11-13T05:44:41.670Z,4.20
2022-11-13T05:47:29.610Z,4.10
2022-11-13T05:50:16.687Z,3.90
2022-11-13T05:53:03.393Z,4.10
2022-11-13T05:55:49.818Z,4.00
2022-11-13T05:58:36.397Z,4.00
2022-11-13T06:01:25.482Z,4.00
2022-11-13T06:04:13.571Z,3.90
2022-11-13T06:07:00.485Z,3.90
2022-11-13T06:09:47.357Z,3.90
2022-11-13T06:12:33.864Z,3.90
2022-11-13T06:15:20.499Z,3.90
2022-11-13T06:18:07.041Z,3.90
2022-11-13T06:20:54.859Z,3.90
2022-11-13T06:23:42.166Z,3.90
2022-11-13T06:26:31.505Z,3.80
2022-11-13T06:29:18.310Z,3.90
2022-11-13T06:32:05.027Z,3.80
2022-11-13T06:34:51.498Z,3.80
2022-11-13T06:37:39.231Z,3.80
2022-11-13T06:40:25.859Z,3.80
2022-11-13T06:43:12.531Z,3.80
2022-11-13T06:45:59.355Z,3.80
2022-11-13T06:48:45.731Z,3.80
2022-11-13T06:51:32.670Z,3.80
2022-11-13T06:54:20.538Z,3.70
2022-11-13T06:57:07.100Z,3.70
2022-11-13T06:59:53.520Z,3.80
2022-11-13T07:02:40.108Z,3.70
2022-11-13T07:05:26.365Z,3.80
2022-11-13T07:08:13.726Z,3.80
2022-11-13T07:11:01.637Z,3.80
2022-11-13T07:13:49.077Z,3.80
2022-11-13T07:17:04.289Z,3.70
2022-11-13T07:19:42.413Z,3.80
2022-11-13T07:22:30.481Z,3.90
2022-11-13T07:25:17.219Z,3.90
2022-11-13T07:28:05.674Z,3.90
2022-11-13T07:30:52.084Z,3.90
2022-11-13T07:33:38.478Z,4.00
2022-11-13T07:36:24.950Z,4.00
2022-11-13T07:39:11.406Z,4.10
2022-11-13T07:41:57.827Z,4.10
2022-11-13T07:44:54.604Z,4.20
2022-11-13T07:47:42.043Z,4.30
2022-11-13T07:50:29.733Z,4.30
2022-11-13T07:53:16.846Z,4.50
2022-11-13T07:56:04.324Z,4.60
2022-11-13T07:58:50.823Z,4.70
2022-11-13T08:01:39.179Z,4.80
2022-11-13T08:04:26.110Z,4.80
2022-11-13T08:07:13.699Z,4.90
2022-11-13T08:10:00.574Z,5.00
2022-11-13T08:12:48.181Z,5.10
2022-11-13T08:15:35.647Z,5.20
2022-11-13T08:18:23.744Z,5.20
2022-11-13T08:21:14.690Z,5.30
2022-11-13T08:24:01.795Z,5.40
2022-11-13T08:26:48.443Z,5.50
2022-11-13T08:29:37.262Z,5.60
2022-11-13T08:32:24.175Z,5.70
2022-11-13T08:35:17.385Z,5.80
2022-11-13T08:38:06.994Z,5.90
2022-11-13T08:40:54.047Z,5.90
2022-11-13T08:43:40.913Z,6.10
2022-11-13T08:46:27.677Z,6.20
2022-11-13T08:49:14.184Z,6.30
2022-11-13T08:52:01.995Z,6.50
2022-11-13T08:54:48.759Z,6.60
2022-11-13T08:57:35.296Z,6.60
2022-11-13T09:00:22.505Z,6.90
2022-11-13T09:03:12.103Z,6.90
2022-11-13T09:05:59.059Z,7.00
2022-11-13T09:08:46.895Z,7.10
2022-11-13T09:11:33.929Z,7.20
2022-11-13T09:14:20.550Z,7.40
2022-11-13T09:17:07.470Z,7.50
2022-11-13T09:19:53.906Z,7.30
2022-11-13T09:22:40.357Z,7.80
2022-11-13T09:25:35.813Z,8.00
2022-11-13T09:28:23.685Z,8.10
2022-11-13T09:31:10.466Z,8.20
2022-11-13T09:33:57.066Z,8.40
2022-11-13T09:36:43.619Z,8.50
2022-11-13T09:39:30.149Z,8.60
2022-11-13T09:42:22.114Z,8.70
2022-11-13T09:45:14.313Z,8.90
2022-11-13T09:48:08.836Z,9.00
2022-11-13T09:50:55.807Z,9.10
2022-11-13T09:53:43.485Z,9.30
2022-11-13T09:56:34.553Z,9.40
2022-11-13T09:59:28.486Z,9.40
2022-11-13T10:02:22.879Z,9.60
2022-11-13T10:05:21.993Z,9.60
2022-11-13T10:08:14.592Z,9.80
2022-11-13T10:11:10.353Z,9.90
2022-11-13T10:14:03.169Z,10.00
2022-11-13T10:16:55.897Z,10.20
2022-11-13T10:19:50.443Z,10.20
2022-11-13T10:22:41.722Z,10.40
2022-11-13T10:25:33.441Z,10.40
2022-11-13T10:31:29.776Z,10.70
2022-11-13T10:34:18.945Z,10.80
2022-11-13T10:37:23.278Z,10.90
2022-11-13T10:40:10.281Z,11.00
2022-11-13T10:43:06.944Z,11.20
2022-11-13T10:45:58.422Z,11.20
2022-11-13T10:48:45.061Z,11.20
2022-11-13T10:51:35.274Z,11.30
2022-11-13T10:54:25.336Z,11.40
2022-11-13T10:57:34.661Z,11.50
2022-11-13T11:00:24.691Z,11.60
2022-11-13T11:03:16.263Z,11.70
2022-11-13T11:06:04.217Z,11.70
2022-11-13T11:08:52.074Z,11.70
2022-11-13T11:11:56.055Z,11.80
2022-11-13T11:14:53.833Z,11.90
2022-11-13T11:17:47.466Z,12.00
2022-11-13T11:20:48.743Z,11.90
2022-11-13T11:23:42.327Z,12.00
2022-11-13T11:26:35.069Z,12.00
2022-11-13T11:29:28.735Z,11.90
2022-11-13T11:32:24.048Z,12.00
2022-11-13T11:35:16.510Z,12.10
2022-11-13T11:38:11.244Z,12.20
2022-11-13T11:41:05.843Z,12.20
2022-11-13T11:44:02.246Z,12.10
2022-11-13T11:46:48.759Z,12.10
2022-11-13T11:49:35.195Z,12.10
2022-11-13T11:52:35.485Z,12.10
2022-11-13T11:55:44.902Z,12.10
2022-11-13T11:58:50.854Z,12.10
2022-11-13T12:02:02.874Z,12.00
2022-11-13T12:05:03.774Z,12.10
2022-11-13T12:08:07.431Z,12.10
2022-11-13T12:11:01.794Z,12.10
2022-11-13T12:13:59.331Z,12.10
2022-11-13T12:16:51.094Z,12.10
2022-11-13T12:19:51.787Z,12.20
2022-11-13T12:22:49.805Z,12.30
2022-11-13T12:25:43.207Z,12.20
2022-11-13T12:28:40.944Z,12.20
2022-11-13T12:31:44.984Z,12.20
2022-11-13T12:34:38.635Z,12.20
2022-11-13T12:37:34.178Z,12.20
2022-11-13T12:40:29.133Z,12.20
2022-11-13T12:43:47.770Z,12.20
2022-11-13T12:46:37.381Z,12.10
2022-11-13T12:49:34.452Z,12.20
2022-11-13T12:52:24.064Z,12.20
2022-11-13T12:55:27.508Z,12.20
2022-11-13T12:58:21.636Z,12.20
2022-11-13T13:01:18.611Z,12.20
2022-11-13T13:04:30.926Z,12.20
2022-11-13T13:07:34.072Z,12.20
2022-11-13T13:10:28.317Z,12.20
2022-11-13T13:13:24.366Z,12.30
2022-11-13T13:16:12.069Z,12.30
2022-11-13T13:19:08.955Z,12.20
2022-11-13T13:21:56.631Z,12.20
2022-11-13T13:24:44.647Z,12.20
2022-11-13T13:27:34.317Z,12.00
2022-11-13T13:30:23.015Z,12.00
2022-11-13T13:33:21.246Z,11.90
2022-11-13T13:36:19.074Z,11.80
2022-11-13T13:39:29.596Z,11.80
2022-11-13T13:42:34.195Z,11.70
2022-11-13T13:45:28.806Z,11.60
2022-11-13T13:48:20.248Z,11.50
2022-11-13T13:51:18.546Z,11.30
2022-11-13T13:54:09.476Z,11.20
2022-11-13T13:56:58.603Z,11.00
2022-11-13T13:59:46.813Z,10.90
2022-11-13T14:02:33.739Z,10.70
2022-11-13T14:05:29.531Z,10.70
2022-11-13T14:08:20.496Z,10.50
2022-11-13T14:11:18.826Z,10.50
2022-11-13T14:14:09.922Z,10.40
2022-11-13T14:17:00.508Z,10.30
2022-11-13T14:19:51.136Z,10.30
2022-11-13T14:22:38.041Z,10.30
2022-11-13T14:25:27.666Z,10.20
2022-11-13T14:28:17.033Z,10.10
2022-11-13T14:31:05.999Z,10.10
2022-11-13T14:33:54.317Z,10.00
2022-11-13T14:36:41.363Z,10.00
2022-11-13T14:39:31.466Z,9.90
2022-11-13T14:42:20.991Z,9.70
2022-11-13T14:45:15.589Z,9.70
2022-11-13T14:48:04.138Z,9.70
2022-11-13T14:50:54.298Z,9.50
2022-11-13T14:53:43.426Z,9.50
2022-11-13T14:56:35.336Z,9.50
2022-11-13T14:59:27.662Z,9.40
2022-11-13T15:02:15.018Z,9.40
2022-11-13T15:05:01.591Z,9.20
2022-11-13T15:07:50.104Z,9.10
2022-11-13T15:10:38.224Z,9.20
2022-11-13T15:13:26.210Z,9.00
2022-11-13T15:16:17.067Z,9.00
2022-11-13T15:19:07.299Z,9.00
2022-11-13T15:22:25.278Z,9.00
2022-11-13T15:25:04.568Z,8.90
2022-11-13T15:27:51.144Z,8.90
2022-11-13T15:30:37.866Z,8.90
2022-11-13T15:33:24.604Z,8.90
2022-11-13T15:36:11.506Z,8.80
2022-11-13T15:38:59.138Z,8.80
2022-11-13T15:41:49.650Z,8.80
2022-11-13T15:44:36.132Z,8.70
2022-11-13T15:47:28.639Z,8.80
2022-11-13T15:50:16.092Z,8.80
2022-11-13T15:53:05.681Z,8.80
2022-11-13T15:55:52.479Z,8.80
2022-11-13T15:58:40.464Z,8.80
2022-11-13T16:01:27.323Z,8.80
2022-11-13T16:04:16.194Z,8.90
2022-11-13T16:07:03.113Z,8.80
2022-11-13T16:09:50.287Z,8.90
2022-11-13T16:12:37.046Z,8.90
2022-11-13T16:15:24.831Z,8.70
2022-11-13T16:18:21.237Z,8.80
2022-11-13T16:21:07.963Z,8.80
2022-11-13T16:23:54.497Z,8.80
2022-11-13T16:26:42.980Z,8.80
2022-11-13T16:29:30.915Z,8.80
2022-11-13T16:32:19.094Z,8.70
2022-11-13T16:35:06.476Z,8.60
2022-11-13T16:37:53.153Z,8.70
2022-11-13T16:40:41.499Z,8.80
2022-11-13T16:43:28.518Z,8.70
2022-11-13T16:46:21.487Z,8.60
2022-11-13T16:49:13.646Z,8.50
2022-11-13T16:52:00.346Z,8.60
2022-11-13T16:54:46.685Z,8.70
2022-11-13T16:57:33.245Z,8.60
2022-11-13T17:00:20.699Z,8.60
2022-11-13T17:03:07.120Z,8.60
2022-11-13T17:05:54.984Z,8.60
2022-11-13T17:08:41.460Z,8.60
2022-11-13T17:11:30.027Z,8.70
2022-11-13T17:14:16.475Z,8.60
2022-11-13T17:17:03.103Z,8.60
2022-11-13T17:19:50.277Z,8.60
2022-11-13T17:22:38.003Z,8.50
2022-11-13T17:25:26.772Z,8.50
2022-11-13T17:28:13.917Z,8.60
2022-11-13T17:31:04.027Z,8.60
2022-11-13T17:33:53.772Z,8.50
2022-11-13T17:36:40.148Z,8.40
2022-11-13T17:39:28.255Z,8.40
2022-11-13T17:42:14.825Z,8.50
2022-11-13T17:45:01.235Z,8.40
2022-11-13T17:47:47.745Z,8.50
2022-11-13T17:50:34.299Z,8.40
2022-11-13T17:53:20.959Z,8.30
2022-11-13T17:56:11.733Z,8.30
2022-11-13T17:58:58.359Z,8.30
2022-11-13T18:01:45.176Z,8.30
2022-11-13T18:04:32.439Z,8.30
2022-11-13T18:07:19.160Z,8.30
2022-11-13T18:10:06.890Z,8.40
2022-11-13T18:12:54.704Z,8.50
2022-11-13T18:15:42.235Z,8.50
2022-11-13T18:18:29.076Z,8.30
2022-11-13T18:21:22.721Z,8.30
2022-11-13T18:24:16.624Z,8.40
2022-11-13T18:27:03.355Z,8.30
2022-11-13T18:29:51.448Z,8.20
2022-11-13T18:32:38.105Z,8.30
2022-11-13T18:35:24.574Z,8.20
2022-11-13T18:38:11.090Z,8.30
2022-11-13T18:41:02.782Z,8.30
2022-11-13T18:43:51.083Z,8.30
2022-11-13T18:46:39.015Z,8.30
2022-11-13T18:49:25.763Z,8.30
2022-11-13T18:52:12.431Z,8.30
2022-11-13T18:54:59.250Z,8.30
2022-11-13T18:57:45.834Z,8.30
2022-11-13T19:00:32.188Z,8.20
2022-11-13T19:03:20.143Z,8.30
2022-11-13T19:06:07.850Z,8.20
2022-11-13T19:08:58.706Z,8.20
2022-11-13T19:11:46.012Z,8.30
2022-11-13T19:14:32.447Z,8.20
2022-11-13T19:17:18.838Z,8.10
2022-11-13T19:20:08.266Z,8.10
2022-11-13T19:22:54.761Z,8.10
2022-11-13T19:25:41.242Z,8.10
2022-11-13T19:28:28.688Z,8.10
2022-11-13T19:31:18.147Z,8.10
2022-11-13T19:34:07.198Z,8.10
2022-11-13T19:36:54.993Z,8.10
2022-11-13T19:39:41.761Z,8.10
2022-11-13T19:42:28.277Z,8.00
2022-11-13T19:45:14.791Z,8.00
2022-11-13T19:48:01.565Z,8.00
2022-11-13T19:50:48.193Z,8.10
2022-11-13T19:53:36.647Z,8.10
2022-11-13T19:56:24.930Z,8.10
2022-11-13T19:59:12.198Z,8.00
2022-11-13T20:01:58.978Z,8.10
2022-11-13T20:04:45.933Z,8.10
2022-11-13T20:07:32.780Z,8.20
2022-11-13T20:10:20.915Z,8.20
2022-11-13T20:13:07.537Z,8.10
2022-11-13T20:15:55.242Z,8.10
2022-11-13T20:18:42.730Z,8.10
2022-11-13T20:21:31.418Z,8.10
2022-11-13T20:24:17.970Z,8.10
2022-11-13T20:27:05.750Z,8.10
2022-11-13T20:29:52.537Z,8.10
2022-11-13T20:32:39.644Z,8.00
2022-11-13T20:35:27.078Z,8.10
2022-11-13T20:38:13.703Z,8.00
2022-11-13T20:41:04.305Z,8.10
2022-11-13T20:43:53.053Z,8.00
2022-11-13T20:46:39.796Z,8.10
2022-11-13T20:49:26.438Z,8.00
2022-11-13T20:52:12.990Z,8.10
2022-11-13T20:54:59.911Z,8.00
2022-11-13T20:57:46.431Z,8.00
2022-11-13T21:00:34.129Z,8.00
2022-11-13T21:03:20.943Z,7.90
2022-11-13T21:06:08.267Z,8.00
2022-11-13T21:08:56.424Z,7.90
2022-11-13T21:11:43.022Z,7.90
2022-11-13T21:14:29.531Z,7.90
2022-11-13T21:17:17.286Z,8.00
2022-11-13T21:20:04.103Z,7.90
2022-11-13T21:22:50.759Z,7.90
2022-11-13T21:25:37.322Z,8.00
2022-11-13T21:28:27.010Z,7.90
2022-11-13T21:31:17.698Z,8.00
2022-11-13T21:34:05.820Z,7.90
2022-11-13T21:36:52.463Z,7.90
2022-11-13T21:39:38.760Z,7.90
2022-11-13T21:42:25.680Z,7.90
2022-11-13T21:45:12.207Z,8.00
2022-11-13T21:47:58.694Z,8.00
2022-11-13T21:50:46.855Z,7.80
2022-11-13T21:53:33.346Z,7.80
2022-11-13T21:56:19.881Z,7.80
2022-11-13T21:59:07.089Z,7.80
2022-11-13T22:01:53.955Z,7.80
2022-11-13T22:04:41.069Z,7.80
2022-11-13T22:07:29.004Z,7.90
2022-11-13T22:10:16.241Z,7.90
2022-11-13T22:13:03.006Z,7.90
2022-11-13T22:15:50.611Z,7.90
2022-11-13T22:18:37.458Z,7.90
2022-11-13T22:21:25.664Z,8.00
2022-11-13T22:24:14.892Z,7.90
2022-11-13T22:27:01.307Z,7.90
2022-11-13T22:29:48.016Z,7.80
2022-11-13T22:32:34.460Z,7.90
2022-11-13T22:35:20.918Z,7.70
2022-11-13T22:38:07.392Z,7.80
2022-11-13T22:40:55.325Z,7.70
2022-11-13T22:43:43.719Z,7.70
2022-11-13T22:46:32.514Z,7.60
2022-11-13T22:49:19.207Z,7.70
2022-11-13T22:52:06.252Z,7.60
2022-11-13T22:54:52.690Z,7.60
2022-11-13T22:57:40.659Z,7.60
2022-11-13T23:00:27.383Z,7.70
2022-11-13T23:03:14.449Z,7.70
2022-11-13T23:06:03.687Z,7.70
2022-11-13T23:08:50.779Z,7.70
2022-11-13T23:11:40.092Z,7.80
2022-11-13T23:14:28.014Z,7.60
2022-11-13T23:17:14.492Z,7.60
2022-11-13T23:20:01.207Z,7.70
2022-11-13T23:22:47.764Z,7.80
2022-11-13T23:25:34.284Z,7.80
2022-11-13T23:28:20.893Z,7.80
2022-11-13T23:31:09.217Z,7.70
2022-11-13T23:33:55.928Z,7.70
2022-11-13T23:36:42.483Z,7.70
2022-11-13T23:39:28.798Z,7.60
2022-11-13T23:42:20.705Z,7.70
2022-11-13T23:45:19.944Z,7.70
2022-11-13T23:48:08.143Z,7.80
2022-11-13T23:50:54.685Z,7.70
2022-11-13T23:53:41.298Z,7.80
2022-11-13T23:56:27.865Z,7.70
2022-11-13T23:59:14.284Z,7.80
